sensor_id;sensor_type;location;lat;lon;timestamp;temperature;humidity
15969;DHT22;8085;53.472;9.794;2023-04-03T00:00:10;0.30;46.10
15969;DHT22;8085;53.472;9.794;2023-04-03T00:02:37;0.30;51.50
15969;DHT22;8085;53.472;9.794;2023-04-03T00:05:04;0.20;55.20
15969;DHT22;8085;53.472;9.794;2023-04-03T00:07:31;0.20;55.70
15969;DHT22;8085;53.472;9.794;2023-04-03T00:10:00;0.20;62.40
15969;DHT22;8085;53.472;9.794;2023-04-03T00:12:27;0.20;64.90
15969;DHT22;8085;53.472;9.794;2023-04-03T00:14:54;0.20;66.30
15969;DHT22;8085;53.472;9.794;2023-04-03T00:17:21;0.20;67.80
15969;DHT22;8085;53.472;9.794;2023-04-03T00:19:47;0.20;67.40
15969;DHT22;8085;53.472;9.794;2023-04-03T00:22:14;0.20;63.60
15969;DHT22;8085;53.472;9.794;2023-04-03T00:24:41;0.10;61.20
15969;DHT22;8085;53.472;9.794;2023-04-03T00:27:10;0.10;55.70
15969;DHT22;8085;53.472;9.794;2023-04-03T00:29:37;0.00;54.80
15969;DHT22;8085;53.472;9.794;2023-04-03T00:32:04;0.00;53.60
15969;DHT22;8085;53.472;9.794;2023-04-03T00:34:31;-0.10;54.80
15969;DHT22;8085;53.472;9.794;2023-04-03T00:36:58;-0.10;57.20
15969;DHT22;8085;53.472;9.794;2023-04-03T00:39:25;-0.10;61.40
15969;DHT22;8085;53.472;9.794;2023-04-03T00:41:52;-0.20;63.40
15969;DHT22;8085;53.472;9.794;2023-04-03T00:47:24;-0.30;62.60
15969;DHT22;8085;53.472;9.794;2023-04-03T00:49:52;-0.30;64.80
15969;DHT22;8085;53.472;9.794;2023-04-03T00:52:23;-0.30;65.20
15969;DHT22;8085;53.472;9.794;2023-04-03T00:54:55;-0.30;64.00
15969;DHT22;8085;53.472;9.794;2023-04-03T00:57:23;-0.40;65.30
15969;DHT22;8085;53.472;9.794;2023-04-03T00:59:54;-0.40;65.80
15969;DHT22;8085;53.472;9.794;2023-04-03T01:02:23;-0.40;68.90
15969;DHT22;8085;53.472;9.794;2023-04-03T01:04:51;-0.30;74.30
15969;DHT22;8085;53.472;9.794;2023-04-03T01:07:21;-0.30;78.00
15969;DHT22;8085;53.472;9.794;2023-04-03T01:09:52;-0.20;79.20
15969;DHT22;8085;53.472;9.794;2023-04-03T01:12:22;-0.20;73.90
15969;DHT22;8085;53.472;9.794;2023-04-03T01:14:52;-0.20;70.90
15969;DHT22;8085;53.472;9.794;2023-04-03T01:17:28;-0.30;69.00
15969;DHT22;8085;53.472;9.794;2023-04-03T01:20:11;-0.30;71.50
15969;DHT22;8085;53.472;9.794;2023-04-03T01:22:46;-0.40;65.10
15969;DHT22;8085;53.472;9.794;2023-04-03T01:25:16;-0.40;69.50
15969;DHT22;8085;53.472;9.794;2023-04-03T01:27:43;-0.40;67.60
15969;DHT22;8085;53.472;9.794;2023-04-03T01:30:11;-0.40;65.90
15969;DHT22;8085;53.472;9.794;2023-04-03T01:32:41;-0.50;70.60
15969;DHT22;8085;53.472;9.794;2023-04-03T01:35:08;-0.50;73.30
15969;DHT22;8085;53.472;9.794;2023-04-03T01:37:36;-0.50;72.30
15969;DHT22;8085;53.472;9.794;2023-04-03T01:40:04;-0.50;75.90
15969;DHT22;8085;53.472;9.794;2023-04-03T01:42:32;-0.60;77.30
15969;DHT22;8085;53.472;9.794;2023-04-03T01:44:59;-0.60;77.10
15969;DHT22;8085;53.472;9.794;2023-04-03T01:47:26;-0.60;81.70
15969;DHT22;8085;53.472;9.794;2023-04-03T01:49:55;-0.60;80.30
15969;DHT22;8085;53.472;9.794;2023-04-03T01:52:21;-0.70;84.80
15969;DHT22;8085;53.472;9.794;2023-04-03T01:54:48;-0.70;84.70
15969;DHT22;8085;53.472;9.794;2023-04-03T01:57:16;-0.70;85.80
15969;DHT22;8085;53.472;9.794;2023-04-03T01:59:43;-0.60;84.70
15969;DHT22;8085;53.472;9.794;2023-04-03T02:02:10;-0.70;85.20
15969;DHT22;8085;53.472;9.794;2023-04-03T02:04:38;-0.70;85.30
15969;DHT22;8085;53.472;9.794;2023-04-03T02:07:06;-0.70;87.90
15969;DHT22;8085;53.472;9.794;2023-04-03T02:09:33;-0.60;90.60
15969;DHT22;8085;53.472;9.794;2023-04-03T02:12:01;-0.60;91.60
15969;DHT22;8085;53.472;9.794;2023-04-03T02:14:27;-0.50;92.40
15969;DHT22;8085;53.472;9.794;2023-04-03T02:16:55;-0.50;92.10
15969;DHT22;8085;53.472;9.794;2023-04-03T02:19:22;-0.40;92.00
15969;DHT22;8085;53.472;9.794;2023-04-03T02:21:48;-0.50;91.60
15969;DHT22;8085;53.472;9.794;2023-04-03T02:24:17;-0.40;91.70
15969;DHT22;8085;53.472;9.794;2023-04-03T02:26:44;-0.40;91.00
15969;DHT22;8085;53.472;9.794;2023-04-03T02:29:11;-0.50;86.30
15969;DHT22;8085;53.472;9.794;2023-04-03T02:31:38;-0.50;82.90
15969;DHT22;8085;53.472;9.794;2023-04-03T02:34:05;-0.70;78.90
15969;DHT22;8085;53.472;9.794;2023-04-03T02:36:32;-0.70;79.50
15969;DHT22;8085;53.472;9.794;2023-04-03T02:38:59;-0.70;83.10
15969;DHT22;8085;53.472;9.794;2023-04-03T02:41:27;-0.70;89.30
15969;DHT22;8085;53.472;9.794;2023-04-03T02:44:00;-0.70;91.30
15969;DHT22;8085;53.472;9.794;2023-04-03T02:46:27;-0.70;91.50
15969;DHT22;8085;53.472;9.794;2023-04-03T02:48:54;-0.80;89.60
15969;DHT22;8085;53.472;9.794;2023-04-03T02:51:21;-0.80;86.50
15969;DHT22;8085;53.472;9.794;2023-04-03T02:53:48;-0.80;84.50
15969;DHT22;8085;53.472;9.794;2023-04-03T02:56:15;-0.90;81.90
15969;DHT22;8085;53.472;9.794;2023-04-03T02:58:45;-1.00;81.60
15969;DHT22;8085;53.472;9.794;2023-04-03T03:01:13;-1.00;86.90
15969;DHT22;8085;53.472;9.794;2023-04-03T03:03:40;-1.00;92.10
15969;DHT22;8085;53.472;9.794;2023-04-03T03:06:09;-1.00;92.40
15969;DHT22;8085;53.472;9.794;2023-04-03T03:08:36;-1.10;90.60
15969;DHT22;8085;53.472;9.794;2023-04-03T03:11:04;-1.10;89.40
15969;DHT22;8085;53.472;9.794;2023-04-03T03:13:32;-1.20;87.50
15969;DHT22;8085;53.472;9.794;2023-04-03T03:16:01;-1.30;85.40
15969;DHT22;8085;53.472;9.794;2023-04-03T03:18:28;-1.30;89.20
15969;DHT22;8085;53.472;9.794;2023-04-03T03:20:57;-1.30;90.60
15969;DHT22;8085;53.472;9.794;2023-04-03T03:23:25;-1.30;92.30
15969;DHT22;8085;53.472;9.794;2023-04-03T03:25:55;-1.30;93.40
15969;DHT22;8085;53.472;9.794;2023-04-03T03:28:22;-1.30;91.40
15969;DHT22;8085;53.472;9.794;2023-04-03T03:30:49;-1.30;91.40
15969;DHT22;8085;53.472;9.794;2023-04-03T03:33:17;-1.40;91.50
15969;DHT22;8085;53.472;9.794;2023-04-03T03:35:45;-1.40;92.80
15969;DHT22;8085;53.472;9.794;2023-04-03T03:38:12;-1.40;93.70
15969;DHT22;8085;53.472;9.794;2023-04-03T03:40:39;-1.30;94.50
15969;DHT22;8085;53.472;9.794;2023-04-03T03:43:06;-1.30;95.20
15969;DHT22;8085;53.472;9.794;2023-04-03T03:45:33;-1.30;95.50
15969;DHT22;8085;53.472;9.794;2023-04-03T03:48:00;-1.30;93.70
15969;DHT22;8085;53.472;9.794;2023-04-03T03:50:29;-1.40;91.80
15969;DHT22;8085;53.472;9.794;2023-04-03T03:52:56;-1.40;90.90
15969;DHT22;8085;53.472;9.794;2023-04-03T03:55:22;-1.50;89.40
15969;DHT22;8085;53.472;9.794;2023-04-03T03:57:49;-1.60;86.30
15969;DHT22;8085;53.472;9.794;2023-04-03T04:00:17;-1.60;88.90
15969;DHT22;8085;53.472;9.794;2023-04-03T04:02:44;-1.60;91.00
15969;DHT22;8085;53.472;9.794;2023-04-03T04:05:11;-1.60;93.20
15969;DHT22;8085;53.472;9.794;2023-04-03T04:07:39;-1.60;95.90
15969;DHT22;8085;53.472;9.794;2023-04-03T04:10:07;-1.50;95.90
15969;DHT22;8085;53.472;9.794;2023-04-03T04:12:34;-1.50;96.80
15969;DHT22;8085;53.472;9.794;2023-04-03T04:15:02;-1.50;94.70
15969;DHT22;8085;53.472;9.794;2023-04-03T04:17:29;-1.60;93.50
15969;DHT22;8085;53.472;9.794;2023-04-03T04:19:56;-1.70;93.70
15969;DHT22;8085;53.472;9.794;2023-04-03T04:22:22;-1.70;94.60
15969;DHT22;8085;53.472;9.794;2023-04-03T04:24:51;-1.70;93.90
15969;DHT22;8085;53.472;9.794;2023-04-03T04:27:18;-1.70;93.10
15969;DHT22;8085;53.472;9.794;2023-04-03T04:29:45;-1.80;93.50
15969;DHT22;8085;53.472;9.794;2023-04-03T04:32:12;-1.80;93.00
15969;DHT22;8085;53.472;9.794;2023-04-03T04:34:38;-1.80;94.30
15969;DHT22;8085;53.472;9.794;2023-04-03T04:37:05;-1.80;95.80
15969;DHT22;8085;53.472;9.794;2023-04-03T04:39:32;-1.80;95.60
15969;DHT22;8085;53.472;9.794;2023-04-03T04:42:01;-1.80;94.10
15969;DHT22;8085;53.472;9.794;2023-04-03T04:44:28;-1.80;95.90
15969;DHT22;8085;53.472;9.794;2023-04-03T04:46:55;-1.70;97.90
15969;DHT22;8085;53.472;9.794;2023-04-03T04:49:22;-1.70;98.50
15969;DHT22;8085;53.472;9.794;2023-04-03T04:51:49;-1.60;98.80
15969;DHT22;8085;53.472;9.794;2023-04-03T04:54:16;-1.60;98.00
15969;DHT22;8085;53.472;9.794;2023-04-03T04:56:43;-1.60;97.70
15969;DHT22;8085;53.472;9.794;2023-04-03T04:59:11;-1.70;96.50
15969;DHT22;8085;53.472;9.794;2023-04-03T05:01:38;-1.60;95.90
15969;DHT22;8085;53.472;9.794;2023-04-03T05:04:06;-1.60;96.00
15969;DHT22;8085;53.472;9.794;2023-04-03T05:06:33;-1.60;97.00
15969;DHT22;8085;53.472;9.794;2023-04-03T05:09:00;-1.60;96.60
15969;DHT22;8085;53.472;9.794;2023-04-03T05:11:27;-1.60;95.30
15969;DHT22;8085;53.472;9.794;2023-04-03T05:13:54;-1.60;93.60
15969;DHT22;8085;53.472;9.794;2023-04-03T05:16:23;-1.60;93.30
15969;DHT22;8085;53.472;9.794;2023-04-03T05:18:50;-1.60;92.80
15969;DHT22;8085;53.472;9.794;2023-04-03T05:21:17;-1.60;99.90
15969;DHT22;8085;53.472;9.794;2023-04-03T05:23:44;-1.40;99.90
15969;DHT22;8085;53.472;9.794;2023-04-03T05:26:11;-1.30;99.90
15969;DHT22;8085;53.472;9.794;2023-04-03T05:28:38;-1.30;99.90
15969;DHT22;8085;53.472;9.794;2023-04-03T05:31:06;-1.20;99.90
15969;DHT22;8085;53.472;9.794;2023-04-03T05:33:36;-0.90;99.90
15969;DHT22;8085;53.472;9.794;2023-04-03T05:36:04;-0.80;99.90
15969;DHT22;8085;53.472;9.794;2023-04-03T05:38:32;-0.90;69.90
15969;DHT22;8085;53.472;9.794;2023-04-03T05:41:01;-1.10;56.10
15969;DHT22;8085;53.472;9.794;2023-04-03T05:43:28;-1.20;58.10
15969;DHT22;8085;53.472;9.794;2023-04-03T05:45:55;-1.20;63.20
15969;DHT22;8085;53.472;9.794;2023-04-03T05:48:22;-1.30;69.60
15969;DHT22;8085;53.472;9.794;2023-04-03T05:50:51;-1.30;75.70
15969;DHT22;8085;53.472;9.794;2023-04-03T05:53:21;-1.30;79.10
15969;DHT22;8085;53.472;9.794;2023-04-03T05:55:48;-1.30;83.90
15969;DHT22;8085;53.472;9.794;2023-04-03T05:58:15;-1.30;89.40
15969;DHT22;8085;53.472;9.794;2023-04-03T06:00:42;-1.20;91.70
15969;DHT22;8085;53.472;9.794;2023-04-03T06:03:09;-1.20;93.20
15969;DHT22;8085;53.472;9.794;2023-04-03T06:05:36;-1.10;93.40
15969;DHT22;8085;53.472;9.794;2023-04-03T06:08:04;-1.10;94.60
15969;DHT22;8085;53.472;9.794;2023-04-03T06:10:31;-1.10;97.10
15969;DHT22;8085;53.472;9.794;2023-04-03T06:12:59;-1.00;99.50
15969;DHT22;8085;53.472;9.794;2023-04-03T06:15:25;-0.90;99.90
15969;DHT22;8085;53.472;9.794;2023-04-03T06:17:52;-0.90;99.90
15969;DHT22;8085;53.472;9.794;2023-04-03T06:20:20;-0.90;99.90
15969;DHT22;8085;53.472;9.794;2023-04-03T06:22:47;-0.90;99.90
15969;DHT22;8085;53.472;9.794;2023-04-03T06:25:16;-0.80;99.90
15969;DHT22;8085;53.472;9.794;2023-04-03T06:27:44;-0.70;99.90
15969;DHT22;8085;53.472;9.794;2023-04-03T06:30:11;-0.60;99.90
15969;DHT22;8085;53.472;9.794;2023-04-03T06:32:38;-0.60;99.90
15969;DHT22;8085;53.472;9.794;2023-04-03T06:35:06;-0.50;99.90
15969;DHT22;8085;53.472;9.794;2023-04-03T06:37:34;-0.40;99.90
15969;DHT22;8085;53.472;9.794;2023-04-03T06:40:01;-0.30;99.90
15969;DHT22;8085;53.472;9.794;2023-04-03T06:42:29;-0.20;99.90
15969;DHT22;8085;53.472;9.794;2023-04-03T06:44:56;-0.10;99.90
15969;DHT22;8085;53.472;9.794;2023-04-03T06:47:23;0.00;99.90
15969;DHT22;8085;53.472;9.794;2023-04-03T06:49:50;0.10;99.90
15969;DHT22;8085;53.472;9.794;2023-04-03T06:52:17;0.10;99.90
15969;DHT22;8085;53.472;9.794;2023-04-03T06:54:44;0.20;99.90
15969;DHT22;8085;53.472;9.794;2023-04-03T06:57:12;0.30;99.90
15969;DHT22;8085;53.472;9.794;2023-04-03T06:59:42;0.50;99.90
15969;DHT22;8085;53.472;9.794;2023-04-03T07:02:11;0.60;99.90
15969;DHT22;8085;53.472;9.794;2023-04-03T07:04:41;0.70;99.90
15969;DHT22;8085;53.472;9.794;2023-04-03T07:07:08;0.80;99.90
15969;DHT22;8085;53.472;9.794;2023-04-03T07:09:35;0.80;99.90
15969;DHT22;8085;53.472;9.794;2023-04-03T07:12:02;1.00;99.90
15969;DHT22;8085;53.472;9.794;2023-04-03T07:14:29;1.00;99.90
15969;DHT22;8085;53.472;9.794;2023-04-03T07:16:57;1.10;99.90
15969;DHT22;8085;53.472;9.794;2023-04-03T07:19:24;1.30;99.90
15969;DHT22;8085;53.472;9.794;2023-04-03T07:21:53;1.40;99.90
15969;DHT22;8085;53.472;9.794;2023-04-03T07:24:23;1.50;99.90
15969;DHT22;8085;53.472;9.794;2023-04-03T07:26:52;1.60;99.90
15969;DHT22;8085;53.472;9.794;2023-04-03T07:29:19;1.70;99.90
15969;DHT22;8085;53.472;9.794;2023-04-03T07:31:47;1.80;99.90
15969;DHT22;8085;53.472;9.794;2023-04-03T07:34:16;1.90;98.60
15969;DHT22;8085;53.472;9.794;2023-04-03T07:36:43;2.00;95.70
15969;DHT22;8085;53.472;9.794;2023-04-03T07:39:09;2.20;90.90
15969;DHT22;8085;53.472;9.794;2023-04-03T07:41:37;2.40;65.90
15969;DHT22;8085;53.472;9.794;2023-04-03T07:44:03;2.50;52.70
15969;DHT22;8085;53.472;9.794;2023-04-03T07:46:31;2.60;45.70
15969;DHT22;8085;53.472;9.794;2023-04-03T07:48:58;2.70;44.50
15969;DHT22;8085;53.472;9.794;2023-04-03T07:51:26;2.90;40.60
15969;DHT22;8085;53.472;9.794;2023-04-03T07:53:55;3.10;39.00
15969;DHT22;8085;53.472;9.794;2023-04-03T07:56:22;3.40;29.70
15969;DHT22;8085;53.472;9.794;2023-04-03T07:58:50;3.70;1.00
15969;DHT22;8085;53.472;9.794;2023-04-03T08:01:17;4.20;1.00
15969;DHT22;8085;53.472;9.794;2023-04-03T08:03:44;4.50;1.00
15969;DHT22;8085;53.472;9.794;2023-04-03T08:06:11;4.70;1.00
15969;DHT22;8085;53.472;9.794;2023-04-03T08:08:40;5.00;1.00
15969;DHT22;8085;53.472;9.794;2023-04-03T08:11:07;5.30;1.00
15969;DHT22;8085;53.472;9.794;2023-04-03T08:13:34;5.40;1.00
15969;DHT22;8085;53.472;9.794;2023-04-03T08:16:08;5.40;1.00
15969;DHT22;8085;53.472;9.794;2023-04-03T08:18:35;5.30;1.00
15969;DHT22;8085;53.472;9.794;2023-04-03T08:21:06;5.00;1.00
15969;DHT22;8085;53.472;9.794;2023-04-03T08:23:32;5.00;99.90
15969;DHT22;8085;53.472;9.794;2023-04-03T08:26:06;4.90;1.00
15969;DHT22;8085;53.472;9.794;2023-04-03T08:28:33;4.90;21.40
15969;DHT22;8085;53.472;9.794;2023-04-03T08:31:03;5.10;99.90
15969;DHT22;8085;53.472;9.794;2023-04-03T08:33:32;5.60;1.00
15969;DHT22;8085;53.472;9.794;2023-04-03T08:36:02;6.00;1.00
15969;DHT22;8085;53.472;9.794;2023-04-03T08:38:29;6.40;91.50
15969;DHT22;8085;53.472;9.794;2023-04-03T08:41:13;6.50;97.10
15969;DHT22;8085;53.472;9.794;2023-04-03T08:43:53;6.70;99.90
15969;DHT22;8085;53.472;9.794;2023-04-03T08:46:23;6.80;1.00
15969;DHT22;8085;53.472;9.794;2023-04-03T08:48:52;7.00;1.00
15969;DHT22;8085;53.472;9.794;2023-04-03T08:51:20;7.10;1.00
15969;DHT22;8085;53.472;9.794;2023-04-03T08:53:55;7.30;1.00
15969;DHT22;8085;53.472;9.794;2023-04-03T08:56:25;7.40;1.00
15969;DHT22;8085;53.472;9.794;2023-04-03T08:58:56;7.60;1.00
15969;DHT22;8085;53.472;9.794;2023-04-03T09:01:27;7.80;99.90
15969;DHT22;8085;53.472;9.794;2023-04-03T09:03:56;8.00;31.40
15969;DHT22;8085;53.472;9.794;2023-04-03T09:06:26;7.80;3.40
15969;DHT22;8085;53.472;9.794;2023-04-03T09:09:04;7.90;1.00
15969;DHT22;8085;53.472;9.794;2023-04-03T09:11:44;8.30;1.00
15969;DHT22;8085;53.472;9.794;2023-04-03T09:14:16;8.20;99.90
15969;DHT22;8085;53.472;9.794;2023-04-03T09:16:50;8.50;99.90
15969;DHT22;8085;53.472;9.794;2023-04-03T09:19:23;8.50;99.90
15969;DHT22;8085;53.472;9.794;2023-04-03T09:21:56;8.50;99.90
15969;DHT22;8085;53.472;9.794;2023-04-03T09:24:25;8.70;99.90
15969;DHT22;8085;53.472;9.794;2023-04-03T09:26:58;9.10;99.90
15969;DHT22;8085;53.472;9.794;2023-04-03T09:29:26;9.20;90.60
15969;DHT22;8085;53.472;9.794;2023-04-03T09:32:21;9.30;9.40
15969;DHT22;8085;53.472;9.794;2023-04-03T09:34:59;9.60;1.00
15969;DHT22;8085;53.472;9.794;2023-04-03T09:37:38;9.40;1.00
15969;DHT22;8085;53.472;9.794;2023-04-03T09:40:29;9.50;1.00
15969;DHT22;8085;53.472;9.794;2023-04-03T09:43:21;9.60;1.00
15969;DHT22;8085;53.472;9.794;2023-04-03T09:48:38;9.80;1.00
15969;DHT22;8085;53.472;9.794;2023-04-03T09:51:15;9.80;1.00
15969;DHT22;8085;53.472;9.794;2023-04-03T09:53:48;9.40;1.00
15969;DHT22;8085;53.472;9.794;2023-04-03T09:56:23;9.60;1.00
15969;DHT22;8085;53.472;9.794;2023-04-03T09:59:08;10.00;1.00
15969;DHT22;8085;53.472;9.794;2023-04-03T10:01:41;10.30;1.00
15969;DHT22;8085;53.472;9.794;2023-04-03T10:04:10;10.10;1.00
15969;DHT22;8085;53.472;9.794;2023-04-03T10:06:40;10.10;1.00
15969;DHT22;8085;53.472;9.794;2023-04-03T10:09:21;10.10;1.00
15969;DHT22;8085;53.472;9.794;2023-04-03T10:12:03;10.30;1.00
15969;DHT22;8085;53.472;9.794;2023-04-03T10:14:34;10.10;1.00
15969;DHT22;8085;53.472;9.794;2023-04-03T10:17:10;9.40;1.00
15969;DHT22;8085;53.472;9.794;2023-04-03T10:19:41;9.20;1.00
15969;DHT22;8085;53.472;9.794;2023-04-03T10:22:20;9.30;1.00
15969;DHT22;8085;53.472;9.794;2023-04-03T10:24:58;9.20;1.00
15969;DHT22;8085;53.472;9.794;2023-04-03T10:27:35;9.20;1.00
15969;DHT22;8085;53.472;9.794;2023-04-03T10:30:19;9.70;1.00
15969;DHT22;8085;53.472;9.794;2023-04-03T10:32:57;10.10;1.00
15969;DHT22;8085;53.472;9.794;2023-04-03T10:35:41;9.80;1.00
15969;DHT22;8085;53.472;9.794;2023-04-03T10:38:15;9.50;1.00
15969;DHT22;8085;53.472;9.794;2023-04-03T10:40:50;9.70;1.00
15969;DHT22;8085;53.472;9.794;2023-04-03T10:43:26;10.00;1.00
15969;DHT22;8085;53.472;9.794;2023-04-03T10:46:02;10.40;1.00
15969;DHT22;8085;53.472;9.794;2023-04-03T10:48:43;11.00;1.00
15969;DHT22;8085;53.472;9.794;2023-04-03T10:51:19;11.00;1.00
15969;DHT22;8085;53.472;9.794;2023-04-03T10:53:55;10.60;1.00
15969;DHT22;8085;53.472;9.794;2023-04-03T10:56:30;9.80;1.00
15969;DHT22;8085;53.472;9.794;2023-04-03T10:59:05;9.30;1.00
15969;DHT22;8085;53.472;9.794;2023-04-03T11:01:38;8.90;1.00
15969;DHT22;8085;53.472;9.794;2023-04-03T11:04:09;8.60;1.00
15969;DHT22;8085;53.472;9.794;2023-04-03T11:06:41;8.10;1.00
15969;DHT22;8085;53.472;9.794;2023-04-03T11:09:17;7.80;1.00
15969;DHT22;8085;53.472;9.794;2023-04-03T11:11:46;8.20;1.00
15969;DHT22;8085;53.472;9.794;2023-04-03T11:14:26;9.00;1.00
15969;DHT22;8085;53.472;9.794;2023-04-03T11:17:04;9.50;1.00
15969;DHT22;8085;53.472;9.794;2023-04-03T11:19:35;9.00;99.90
15969;DHT22;8085;53.472;9.794;2023-04-03T11:22:11;8.30;1.00
15969;DHT22;8085;53.472;9.794;2023-04-03T11:24:42;8.10;1.00
15969;DHT22;8085;53.472;9.794;2023-04-03T11:27:19;8.20;1.00
15969;DHT22;8085;53.472;9.794;2023-04-03T11:29:49;8.10;1.00
15969;DHT22;8085;53.472;9.794;2023-04-03T11:32:48;8.20;1.00
15969;DHT22;8085;53.472;9.794;2023-04-03T11:35:19;8.50;1.00
15969;DHT22;8085;53.472;9.794;2023-04-03T11:37:51;8.80;1.00
15969;DHT22;8085;53.472;9.794;2023-04-03T11:40:22;9.20;1.00
15969;DHT22;8085;53.472;9.794;2023-04-03T11:42:53;9.50;99.90
15969;DHT22;8085;53.472;9.794;2023-04-03T11:51:43;9.70;99.90
15969;DHT22;8085;53.472;9.794;2023-04-03T11:54:49;9.90;99.90
15969;DHT22;8085;53.472;9.794;2023-04-03T11:57:43;10.50;99.90
15969;DHT22;8085;53.472;9.794;2023-04-03T12:00:49;10.50;99.90
15969;DHT22;8085;53.472;9.794;2023-04-03T12:10:13;9.00;99.90
15969;DHT22;8085;53.472;9.794;2023-04-03T12:12:41;9.10;99.90
15969;DHT22;8085;53.472;9.794;2023-04-03T12:15:22;9.60;99.90
15969;DHT22;8085;53.472;9.794;2023-04-03T12:17:49;9.80;99.90
15969;DHT22;8085;53.472;9.794;2023-04-03T12:20:55;10.20;99.90
15969;DHT22;8085;53.472;9.794;2023-04-03T12:23:27;10.20;99.90
15969;DHT22;8085;53.472;9.794;2023-04-03T12:26:06;10.40;99.90
15969;DHT22;8085;53.472;9.794;2023-04-03T12:28:48;10.90;99.90
15969;DHT22;8085;53.472;9.794;2023-04-03T12:31:19;10.80;99.90
15969;DHT22;8085;53.472;9.794;2023-04-03T12:34:04;11.10;99.90
15969;DHT22;8085;53.472;9.794;2023-04-03T12:36:41;11.00;99.90
15969;DHT22;8085;53.472;9.794;2023-04-03T12:39:25;10.60;99.90
15969;DHT22;8085;53.472;9.794;2023-04-03T12:42:09;10.10;99.90
15969;DHT22;8085;53.472;9.794;2023-04-03T12:44:47;9.20;99.90
15969;DHT22;8085;53.472;9.794;2023-04-03T12:47:25;8.90;99.90
15969;DHT22;8085;53.472;9.794;2023-04-03T12:49:54;8.70;99.90
15969;DHT22;8085;53.472;9.794;2023-04-03T12:52:32;8.60;1.00
15969;DHT22;8085;53.472;9.794;2023-04-03T12:55:00;8.50;1.00
15969;DHT22;8085;53.472;9.794;2023-04-03T12:57:31;8.60;1.00
15969;DHT22;8085;53.472;9.794;2023-04-03T12:59:59;8.90;1.00
15969;DHT22;8085;53.472;9.794;2023-04-03T13:02:27;9.50;1.00
15969;DHT22;8085;53.472;9.794;2023-04-03T13:04:57;10.00;1.00
15969;DHT22;8085;53.472;9.794;2023-04-03T13:07:28;10.20;99.90
15969;DHT22;8085;53.472;9.794;2023-04-03T13:10:00;10.30;99.90
15969;DHT22;8085;53.472;9.794;2023-04-03T13:12:32;10.00;99.90
15969;DHT22;8085;53.472;9.794;2023-04-03T13:15:01;9.50;99.90
15969;DHT22;8085;53.472;9.794;2023-04-03T13:17:38;9.30;99.90
15969;DHT22;8085;53.472;9.794;2023-04-03T13:20:17;9.40;1.00
15969;DHT22;8085;53.472;9.794;2023-04-03T13:22:49;9.90;99.90
15969;DHT22;8085;53.472;9.794;2023-04-03T13:25:17;10.10;99.90
15969;DHT22;8085;53.472;9.794;2023-04-03T13:27:48;10.10;99.90
15969;DHT22;8085;53.472;9.794;2023-04-03T13:30:20;10.00;1.00
15969;DHT22;8085;53.472;9.794;2023-04-03T13:32:48;10.10;1.00
15969;DHT22;8085;53.472;9.794;2023-04-03T13:35:33;10.10;99.90
15969;DHT22;8085;53.472;9.794;2023-04-03T13:38:04;9.40;99.90
15969;DHT22;8085;53.472;9.794;2023-04-03T13:40:31;8.90;99.90
15969;DHT22;8085;53.472;9.794;2023-04-03T13:43:02;8.80;99.90
15969;DHT22;8085;53.472;9.794;2023-04-03T13:45:30;9.20;99.90
15969;DHT22;8085;53.472;9.794;2023-04-03T13:48:16;9.70;99.90
15969;DHT22;8085;53.472;9.794;2023-04-03T13:50:58;10.40;99.90
15969;DHT22;8085;53.472;9.794;2023-04-03T13:53:26;10.40;99.90
15969;DHT22;8085;53.472;9.794;2023-04-03T13:55:57;9.80;99.90
15969;DHT22;8085;53.472;9.794;2023-04-03T13:58:27;9.20;99.90
15969;DHT22;8085;53.472;9.794;2023-04-03T14:01:06;8.80;99.90
15969;DHT22;8085;53.472;9.794;2023-04-03T14:03:42;8.60;99.90
15969;DHT22;8085;53.472;9.794;2023-04-03T14:06:12;8.70;1.00
15969;DHT22;8085;53.472;9.794;2023-04-03T14:08:39;9.00;99.90
15969;DHT22;8085;53.472;9.794;2023-04-03T14:11:13;9.30;99.90
15969;DHT22;8085;53.472;9.794;2023-04-03T14:13:42;9.50;99.90
15969;DHT22;8085;53.472;9.794;2023-04-03T14:16:14;9.80;99.90
15969;DHT22;8085;53.472;9.794;2023-04-03T14:18:42;9.80;99.90
15969;DHT22;8085;53.472;9.794;2023-04-03T14:21:11;9.80;99.90
15969;DHT22;8085;53.472;9.794;2023-04-03T14:23:39;9.60;99.90
15969;DHT22;8085;53.472;9.794;2023-04-03T14:26:11;9.60;99.90
15969;DHT22;8085;53.472;9.794;2023-04-03T14:28:39;9.70;99.90
15969;DHT22;8085;53.472;9.794;2023-04-03T14:31:09;9.90;99.90
15969;DHT22;8085;53.472;9.794;2023-04-03T14:33:44;10.00;99.90
15969;DHT22;8085;53.472;9.794;2023-04-03T14:36:13;10.00;99.90
15969;DHT22;8085;53.472;9.794;2023-04-03T14:38:42;9.90;99.90
15969;DHT22;8085;53.472;9.794;2023-04-03T14:41:15;9.50;99.90
15969;DHT22;8085;53.472;9.794;2023-04-03T14:43:43;9.00;99.90
15969;DHT22;8085;53.472;9.794;2023-04-03T14:46:21;8.80;99.90
15969;DHT22;8085;53.472;9.794;2023-04-03T14:48:48;9.00;99.90
15969;DHT22;8085;53.472;9.794;2023-04-03T14:51:18;9.20;99.90
15969;DHT22;8085;53.472;9.794;2023-04-03T14:53:53;9.30;99.90
15969;DHT22;8085;53.472;9.794;2023-04-03T14:56:23;9.20;99.90
15969;DHT22;8085;53.472;9.794;2023-04-03T14:58:55;9.20;99.90
15969;DHT22;8085;53.472;9.794;2023-04-03T15:01:23;9.30;99.90
15969;DHT22;8085;53.472;9.794;2023-04-03T15:03:51;9.30;99.90
15969;DHT22;8085;53.472;9.794;2023-04-03T15:06:18;9.30;99.90
15969;DHT22;8085;53.472;9.794;2023-04-03T15:08:47;9.30;99.90
15969;DHT22;8085;53.472;9.794;2023-04-03T15:11:17;9.20;99.90
15969;DHT22;8085;53.472;9.794;2023-04-03T15:13:44;9.20;99.90
15969;DHT22;8085;53.472;9.794;2023-04-03T15:16:15;9.30;99.90
15969;DHT22;8085;53.472;9.794;2023-04-03T15:18:45;9.30;99.90
15969;DHT22;8085;53.472;9.794;2023-04-03T15:21:18;9.30;99.90
15969;DHT22;8085;53.472;9.794;2023-04-03T15:23:46;9.40;99.90
15969;DHT22;8085;53.472;9.794;2023-04-03T15:26:13;9.60;99.90
15969;DHT22;8085;53.472;9.794;2023-04-03T15:28:42;9.30;99.90
15969;DHT22;8085;53.472;9.794;2023-04-03T15:31:10;9.30;99.90
15969;DHT22;8085;53.472;9.794;2023-04-03T15:33:37;9.30;99.90
15969;DHT22;8085;53.472;9.794;2023-04-03T15:36:06;9.20;99.90
15969;DHT22;8085;53.472;9.794;2023-04-03T15:38:33;9.10;99.90
15969;DHT22;8085;53.472;9.794;2023-04-03T15:41:00;9.20;99.90
15969;DHT22;8085;53.472;9.794;2023-04-03T15:43:27;9.30;99.90
15969;DHT22;8085;53.472;9.794;2023-04-03T15:45:57;9.30;99.90
15969;DHT22;8085;53.472;9.794;2023-04-03T15:48:24;9.20;99.90
15969;DHT22;8085;53.472;9.794;2023-04-03T15:50:52;9.10;99.90
15969;DHT22;8085;53.472;9.794;2023-04-03T15:53:20;9.10;99.90
15969;DHT22;8085;53.472;9.794;2023-04-03T15:55:47;8.90;99.90
15969;DHT22;8085;53.472;9.794;2023-04-03T15:58:14;8.80;99.90
15969;DHT22;8085;53.472;9.794;2023-04-03T16:00:41;8.80;99.90
15969;DHT22;8085;53.472;9.794;2023-04-03T16:03:12;8.60;99.90
15969;DHT22;8085;53.472;9.794;2023-04-03T16:05:41;8.40;99.90
15969;DHT22;8085;53.472;9.794;2023-04-03T16:08:08;8.30;99.90
15969;DHT22;8085;53.472;9.794;2023-04-03T16:10:37;8.10;99.90
15969;DHT22;8085;53.472;9.794;2023-04-03T16:13:05;7.80;1.00
15969;DHT22;8085;53.472;9.794;2023-04-03T16:15:32;7.70;1.00
15969;DHT22;8085;53.472;9.794;2023-04-03T16:18:01;7.60;1.00
15969;DHT22;8085;53.472;9.794;2023-04-03T16:20:28;7.40;1.00
15969;DHT22;8085;53.472;9.794;2023-04-03T16:22:56;7.40;1.00
15969;DHT22;8085;53.472;9.794;2023-04-03T16:25:24;7.50;1.00
15969;DHT22;8085;53.472;9.794;2023-04-03T16:27:52;7.50;1.00
15969;DHT22;8085;53.472;9.794;2023-04-03T16:30:20;7.60;1.00
15969;DHT22;8085;53.472;9.794;2023-04-03T16:32:47;7.60;1.00
15969;DHT22;8085;53.472;9.794;2023-04-03T16:35:14;7.50;1.00